Time;durP1;ratioP1;P1;durP2;ratioP2;P2;SDS_P1;SDS_P2;PMS_P1;PMS_P2;Temp;Humidity;BMP_temperature;BMP_pressure;BME280_temperature;BME280_humidity;BME280_pressure;Samples;Min_cycle;Max_cycle;Signal;HPM_P1;HPM_P2
2022/05/30 00:00:50;;;;;;;7.80;1.55;;;8.50;99.90;;;;;;5065787;28;20163;-68
2022/05/30 00:03:17;;;;;;;8.40;1.60;;;8.50;99.90;;;;;;5043503;28;20554;-68
2022/05/30 00:05:48;;;;;;;4.95;1.27;;;8.40;99.90;;;;;;5044333;28;20080;-68
2022/05/30 00:08:17;;;;;;;9.07;1.40;;;8.40;99.90;;;;;;5029093;28;20067;-68
2022/05/30 00:10:43;;;;;;;6.78;1.63;;;8.40;99.90;;;;;;5042207;28;20049;-68
2022/05/30 00:13:09;;;;;;;7.40;1.75;;;8.30;99.90;;;;;;5062715;28;20048;-68
2022/05/30 00:15:36;;;;;;;7.22;1.73;;;8.30;99.90;;;;;;5067007;28;20519;-68
2022/05/30 00:18:02;;;;;;;8.55;1.60;;;8.30;99.90;;;;;;5043168;28;20067;-68
2022/05/30 00:20:28;;;;;;;9.02;1.80;;;8.20;99.90;;;;;;5060985;28;20151;-68
2022/05/30 00:22:54;;;;;;;6.72;1.73;;;8.20;99.90;;;;;;5048950;28;20123;-68
2022/05/30 00:25:19;;;;;;;9.32;2.67;;;8.20;99.90;;;;;;5065737;28;20040;-68
2022/05/30 00:27:45;;;;;;;7.60;1.33;;;8.10;99.90;;;;;;5064161;28;20040;-68
2022/05/30 00:30:13;;;;;;;7.72;1.80;;;8.10;99.90;;;;;;5066336;28;20410;-68
2022/05/30 00:32:39;;;;;;;7.57;2.00;;;8.00;99.90;;;;;;5041775;28;20041;-68
2022/05/30 00:35:05;;;;;;;7.78;1.60;;;8.00;99.90;;;;;;5071613;28;20046;-68
2022/05/30 00:37:31;;;;;;;4.78;1.52;;;7.90;99.90;;;;;;5042671;28;20272;-68
2022/05/30 00:39:57;;;;;;;7.28;1.70;;;7.90;99.90;;;;;;5063859;28;20423;-68
2022/05/30 00:42:26;;;;;;;7.15;1.60;;;7.80;99.90;;;;;;5056222;28;20029;-68
2022/05/30 00:44:53;;;;;;;7.95;1.63;;;7.80;99.90;;;;;;5048383;28;20068;-68
2022/05/30 00:47:20;;;;;;;8.23;1.50;;;7.70;99.90;;;;;;5062335;28;20045;-68
2022/05/30 00:49:47;;;;;;;5.95;1.55;;;7.70;99.90;;;;;;5065117;28;20051;-68
2022/05/30 00:52:31;;;;;;;9.73;1.70;;;7.70;99.90;;;;;;5060404;28;20045;-68
2022/05/30 00:55:05;;;;;;;7.25;1.23;;;7.60;99.90;;;;;;5063004;28;20041;-68
2022/05/30 00:57:32;;;;;;;9.57;1.90;;;7.60;99.90;;;;;;5060874;28;20036;-68
2022/05/30 01:00:00;;;;;;;9.50;2.00;;;7.60;99.90;;;;;;5045136;28;20473;-68
2022/05/30 01:02:30;;;;;;;7.72;1.83;;;7.60;99.90;;;;;;5055307;28;20055;-68
2022/05/30 01:07:44;;;;;;;7.05;1.80;;;7.60;99.90;;;;;;5061453;28;20495;-68
2022/05/30 01:10:13;;;;;;;8.18;1.83;;;7.60;99.90;;;;;;5064436;28;20517;-68
2022/05/30 01:12:40;;;;;;;6.95;1.85;;;7.60;99.90;;;;;;5062807;28;20036;-68
2022/05/30 01:15:10;;;;;;;10.45;2.05;;;7.50;99.90;;;;;;5066946;28;20153;-68
2022/05/30 01:17:46;;;;;;;10.63;1.70;;;7.50;99.90;;;;;;5061793;28;20516;-68
2022/05/30 01:20:25;;;;;;;6.63;1.67;;;7.50;99.90;;;;;;5060358;28;20085;-68
2022/05/30 01:23:10;;;;;;;8.15;2.00;;;7.40;99.90;;;;;;5052119;28;20098;-68
2022/05/30 01:26:11;;;;;;;4.88;1.60;;;7.30;99.90;;;;;;5041825;28;20063;-68
2022/05/30 01:28:43;;;;;;;3.55;1.33;;;7.30;99.90;;;;;;5055198;28;20673;-68
2022/05/30 01:31:09;;;;;;;10.80;1.92;;;7.20;99.90;;;;;;5063947;28;20097;-68
2022/05/30 01:33:35;;;;;;;5.63;1.25;;;7.10;99.90;;;;;;5059474;28;20036;-68
2022/05/30 01:36:02;;;;;;;9.88;1.60;;;7.10;99.90;;;;;;5065715;28;20233;-68
2022/05/30 01:38:28;;;;;;;9.57;2.17;;;7.10;99.90;;;;;;5063587;28;20045;-68
2022/05/30 01:40:55;;;;;;;8.43;1.98;;;7.00;99.90;;;;;;5062928;28;20041;-68
2022/05/30 01:43:22;;;;;;;6.82;1.70;;;6.90;99.90;;;;;;5041159;28;20518;-68
2022/05/30 01:45:47;;;;;;;7.30;1.80;;;7.00;99.90;;;;;;5044933;28;20110;-68
2022/05/30 01:48:13;;;;;;;6.75;2.25;;;7.00;99.90;;;;;;5042149;28;20072;-68
2022/05/30 01:50:39;;;;;;;10.02;2.03;;;6.90;99.90;;;;;;5061307;28;20076;-68
2022/05/30 01:53:05;;;;;;;7.85;2.10;;;6.90;99.90;;;;;;5055438;28;20049;-68
2022/05/30 01:55:30;;;;;;;7.65;1.90;;;7.00;99.90;;;;;;5062472;28;20468;-68
2022/05/30 01:57:56;;;;;;;8.23;2.00;;;7.00;99.90;;;;;;5062935;28;20411;-68
2022/05/30 02:00:22;;;;;;;5.18;1.83;;;7.00;99.90;;;;;;5063218;28;20470;-68
2022/05/30 02:02:49;;;;;;;5.10;1.55;;;7.00;99.90;;;;;;5063212;28;20044;-68
2022/05/30 02:05:14;;;;;;;9.25;2.03;;;7.10;99.90;;;;;;5041744;28;20037;-68
2022/05/30 02:07:40;;;;;;;5.40;1.67;;;7.10;99.90;;;;;;5041649;28;20037;-68
2022/05/30 02:10:06;;;;;;;5.65;1.65;;;7.20;99.90;;;;;;5059061;28;20369;-68
2022/05/30 02:12:32;;;;;;;7.43;2.03;;;7.20;99.90;;;;;;5058140;28;20048;-68
2022/05/30 02:14:58;;;;;;;5.13;1.83;;;7.20;99.90;;;;;;5062461;28;20037;-67
2022/05/30 02:17:24;;;;;;;5.97;1.65;;;7.10;99.90;;;;;;5044566;28;20040;-68
2022/05/30 02:19:50;;;;;;;4.95;1.60;;;7.20;99.90;;;;;;5044565;28;20411;-68
2022/05/30 02:22:18;;;;;;;8.90;1.73;;;7.20;99.90;;;;;;5041094;28;20198;-68
2022/05/30 02:24:48;;;;;;;4.30;1.25;;;7.20;99.90;;;;;;5042431;28;20083;-68
2022/05/30 02:27:15;;;;;;;5.80;1.65;;;7.20;99.90;;;;;;5064899;28;20048;-68
2022/05/30 02:29:42;;;;;;;6.95;1.70;;;7.20;99.90;;;;;;5065267;28;20533;-68
2022/05/30 02:32:08;;;;;;;7.68;1.60;;;7.20;99.90;;;;;;5042237;28;20076;-68
2022/05/30 02:37:18;;;;;;;6.03;1.80;;;7.10;99.90;;;;;;5061577;28;20068;-68
2022/05/30 02:39:44;;;;;;;5.63;1.60;;;7.10;99.90;;;;;;5038906;28;20053;-68
2022/05/30 02:42:10;;;;;;;4.43;1.60;;;7.10;99.90;;;;;;5060312;28;20068;-68
2022/05/30 02:44:36;;;;;;;5.10;1.55;;;7.10;99.90;;;;;;5060374;28;20055;-67
2022/05/30 02:47:03;;;;;;;4.43;1.52;;;7.10;99.90;;;;;;5045365;28;20052;-68
2022/05/30 02:49:28;;;;;;;4.95;1.52;;;7.10;99.90;;;;;;5044340;28;20081;-67
2022/05/30 02:51:55;;;;;;;5.82;1.40;;;7.10;99.90;;;;;;5060185;28;20463;-67
2022/05/30 02:54:21;;;;;;;7.65;1.50;;;7.00;99.90;;;;;;5044189;28;20040;-67
2022/05/30 02:56:49;;;;;;;5.65;1.35;;;7.00;99.90;;;;;;5038678;28;20041;-67
2022/05/30 02:59:15;;;;;;;7.07;1.70;;;6.90;99.90;;;;;;5060084;28;20041;-67
2022/05/30 03:01:41;;;;;;;6.05;1.42;;;6.80;99.90;;;;;;5054417;28;20029;-67
2022/05/30 03:04:07;;;;;;;5.05;1.38;;;6.80;99.90;;;;;;5043388;28;20114;-67
2022/05/30 03:06:33;;;;;;;5.15;1.13;;;6.70;99.90;;;;;;5060089;28;20123;-67
2022/05/30 03:08:59;;;;;;;4.22;1.55;;;6.60;99.90;;;;;;5038779;28;20069;-67
2022/05/30 03:11:25;;;;;;;4.60;1.35;;;6.60;99.90;;;;;;5043474;28;20053;-67
2022/05/30 03:13:51;;;;;;;4.78;1.60;;;6.50;99.90;;;;;;5063631;28;20080;-67
2022/05/30 03:16:17;;;;;;;4.72;1.30;;;6.50;99.90;;;;;;5065442;28;20083;-67
2022/05/30 03:18:43;;;;;;;7.05;1.45;;;6.40;99.90;;;;;;5065209;28;20032;-67
2022/05/30 03:21:10;;;;;;;6.57;1.45;;;6.40;99.90;;;;;;5060305;28;20147;-67
2022/05/30 03:23:36;;;;;;;2.83;1.38;;;6.30;99.90;;;;;;5063533;28;20079;-67
2022/05/30 03:26:02;;;;;;;3.35;1.52;;;6.30;99.90;;;;;;5044438;28;20041;-67
2022/05/30 03:28:28;;;;;;;4.90;1.52;;;6.20;99.90;;;;;;5059833;28;20747;-67
2022/05/30 03:30:54;;;;;;;5.38;1.77;;;6.20;99.90;;;;;;5049287;28;20053;-67
2022/05/30 03:33:19;;;;;;;3.85;1.48;;;6.20;99.90;;;;;;5062843;28;20036;-67
2022/05/30 03:35:46;;;;;;;5.03;1.80;;;6.10;99.90;;;;;;5048924;28;20036;-67
2022/05/30 03:38:12;;;;;;;5.78;2.00;;;6.10;99.90;;;;;;5061159;28;20071;-67
2022/05/30 03:40:39;;;;;;;5.38;1.88;;;6.10;99.90;;;;;;5063004;28;20398;-67
2022/05/30 03:43:09;;;;;;;7.00;1.70;;;6.10;99.90;;;;;;5057781;28;20052;-67
2022/05/30 03:45:40;;;;;;;7.30;2.20;;;6.10;99.90;;;;;;5059189;28;20057;-67
2022/05/30 03:48:07;;;;;;;5.43;1.80;;;6.00;99.90;;;;;;5057030;28;20049;-67
2022/05/30 03:50:33;;;;;;;4.03;1.48;;;6.00;99.90;;;;;;5065532;28;20045;-67
2022/05/30 03:53:04;;;;;;;5.25;1.67;;;5.90;99.90;;;;;;5066202;28;20075;-67
2022/05/30 03:55:40;;;;;;;4.32;1.80;;;5.90;99.90;;;;;;5049473;28;20052;-67
2022/05/30 03:58:07;;;;;;;3.55;1.65;;;5.90;99.90;;;;;;5064130;28;20119;-67
2022/05/30 04:00:34;;;;;;;4.00;1.90;;;5.80;99.90;;;;;;5066328;28;20060;-67
2022/05/30 04:03:01;;;;;;;3.70;1.80;;;5.80;99.90;;;;;;5044990;28;20041;-67
2022/05/30 04:05:27;;;;;;;3.67;1.70;;;5.80;99.90;;;;;;5046540;28;20044;-67
2022/05/30 04:07:53;;;;;;;3.15;1.95;;;5.80;99.90;;;;;;5059670;28;20045;-67
2022/05/30 04:10:20;;;;;;;5.20;1.83;;;5.90;99.90;;;;;;5060177;28;20119;-67
2022/05/30 04:12:46;;;;;;;4.15;1.77;;;5.90;99.90;;;;;;5058812;28;20041;-67
2022/05/30 04:15:19;;;;;;;5.18;1.70;;;6.00;99.90;;;;;;5048108;28;20107;-67
2022/05/30 04:17:45;;;;;;;4.40;1.80;;;6.10;99.90;;;;;;5057683;28;20043;-67
2022/05/30 04:20:11;;;;;;;5.90;2.28;;;6.20;99.90;;;;;;5029862;28;20052;-67
2022/05/30 04:22:37;;;;;;;3.97;1.90;;;6.20;99.90;;;;;;5043246;28;20045;-67
2022/05/30 04:25:03;;;;;;;4.88;2.13;;;6.30;99.90;;;;;;5045160;28;20041;-67
2022/05/30 04:27:29;;;;;;;5.15;1.65;;;6.40;99.90;;;;;;5047438;28;20036;-67
2022/05/30 04:29:54;;;;;;;5.65;2.40;;;6.50;99.90;;;;;;5064001;28;20145;-67
2022/05/30 04:32:22;;;;;;;5.28;1.95;;;6.50;99.90;;;;;;5063273;28;20040;-68
2022/05/30 04:34:48;;;;;;;5.53;1.88;;;6.60;99.90;;;;;;5046897;28;20080;-68
2022/05/30 04:37:14;;;;;;;6.15;1.85;;;6.70;99.90;;;;;;5037699;28;20076;-68
2022/05/30 04:39:39;;;;;;;4.82;2.40;;;6.80;99.90;;;;;;5063728;28;20102;-67
2022/05/30 04:42:06;;;;;;;4.95;2.22;;;6.90;99.90;;;;;;5044156;28;20053;-68
2022/05/30 04:44:32;;;;;;;4.22;2.17;;;7.10;99.90;;;;;;5042926;28;20396;-67
2022/05/30 04:46:58;;;;;;;4.47;2.33;;;7.20;99.90;;;;;;5063978;28;20045;-67
2022/05/30 04:49:26;;;;;;;3.50;1.80;;;7.40;99.90;;;;;;5062376;28;20072;-67
2022/05/30 04:51:51;;;;;;;3.60;1.70;;;7.60;99.90;;;;;;5049883;28;20472;-67
2022/05/30 04:54:18;;;;;;;4.43;1.90;;;7.80;99.90;;;;;;5045784;28;20041;-68
2022/05/30 04:56:45;;;;;;;4.30;1.80;;;7.90;99.90;;;;;;5042378;28;20135;-68
2022/05/30 04:59:11;;;;;;;6.45;1.60;;;8.10;99.90;;;;;;5044917;28;20114;-68
2022/05/30 05:01:37;;;;;;;4.22;1.77;;;8.20;99.90;;;;;;5050675;28;20480;-68
2022/05/30 05:04:04;;;;;;;4.45;1.70;;;8.20;99.90;;;;;;5048012;28;20052;-68
2022/05/30 05:06:30;;;;;;;5.25;1.70;;;8.20;99.90;;;;;;5041141;28;20679;-68
2022/05/30 05:09:15;;;;;;;3.95;1.58;;;8.30;99.90;;;;;;5062500;28;20043;-68
2022/05/30 05:11:41;;;;;;;3.38;1.20;;;8.30;99.90;;;;;;5063496;28;20045;-68
2022/05/30 05:14:07;;;;;;;5.40;1.42;;;8.40;99.90;;;;;;5045641;28;20058;-68
2022/05/30 05:16:33;;;;;;;4.03;1.20;;;8.40;99.90;;;;;;5066837;28;20036;-68
2022/05/30 05:19:00;;;;;;;6.75;1.50;;;8.40;99.90;;;;;;5062652;28;20115;-68
2022/05/30 05:21:36;;;;;;;3.03;1.70;;;8.40;99.90;;;;;;5056403;28;20033;-68
2022/05/30 05:24:03;;;;;;;7.07;1.60;;;8.40;99.90;;;;;;5064327;28;20105;-68
2022/05/30 05:26:29;;;;;;;4.30;1.45;;;8.40;99.90;;;;;;5050817;28;20048;-68
2022/05/30 05:28:56;;;;;;;5.32;1.42;;;8.50;99.90;;;;;;5045627;28;20055;-68
2022/05/30 05:31:27;;;;;;;3.80;1.00;;;8.60;99.90;;;;;;5059424;28;20049;-68
2022/05/30 05:33:54;;;;;;;6.43;1.30;;;8.70;99.90;;;;;;5044753;28;20057;-68
2022/05/30 05:36:29;;;;;;;4.82;1.45;;;8.90;99.90;;;;;;5065096;28;20046;-68
2022/05/30 05:38:54;;;;;;;6.88;1.55;;;9.10;99.90;;;;;;5062741;28;20115;-67
2022/05/30 05:41:21;;;;;;;4.93;1.30;;;9.40;99.90;;;;;;5044558;28;20124;-67
2022/05/30 05:43:52;;;;;;;2.92;1.02;;;9.60;99.90;;;;;;5040222;28;20546;-67
2022/05/30 05:46:20;;;;;;;5.65;1.40;;;9.80;99.90;;;;;;5045964;28;20048;-68
2022/05/30 05:48:46;;;;;;;6.35;1.20;;;10.00;99.90;;;;;;5034511;28;20060;-68
2022/05/30 05:51:14;;;;;;;4.35;1.30;;;10.10;99.90;;;;;;5041048;28;20081;-68
2022/05/30 05:53:41;;;;;;;5.60;1.30;;;10.30;99.90;;;;;;5041563;28;20040;-68
2022/05/30 05:56:16;;;;;;;5.78;1.15;;;10.40;99.90;;;;;;5040423;28;20058;-68
2022/05/30 05:58:41;;;;;;;4.05;1.25;;;10.50;99.90;;;;;;5041759;28;20045;-68
2022/05/30 06:01:13;;;;;;;3.78;0.90;;;10.60;99.90;;;;;;5040440;28;20044;-68
2022/05/30 06:03:39;;;;;;;3.17;1.10;;;10.60;99.90;;;;;;5045613;28;20065;-68
2022/05/30 06:06:05;;;;;;;5.07;1.00;;;10.70;99.90;;;;;;5049298;28;20380;-68
2022/05/30 06:08:32;;;;;;;7.32;1.20;;;10.80;99.90;;;;;;5044896;28;20029;-69
2022/05/30 06:11:15;;;;;;;4.97;1.35;;;10.90;99.90;;;;;;5041800;28;20603;-69
2022/05/30 06:13:46;;;;;;;6.38;1.27;;;11.00;99.90;;;;;;5041387;28;20105;-68
2022/05/30 06:16:20;;;;;;;3.72;0.85;;;11.00;99.90;;;;;;5043036;28;20079;-68
2022/05/30 06:18:46;;;;;;;5.10;0.97;;;11.10;99.90;;;;;;5045664;28;20041;-68
2022/05/30 06:21:12;;;;;;;4.80;1.10;;;11.10;99.90;;;;;;5041508;28;20334;-68
2022/05/30 06:23:38;;;;;;;3.72;0.80;;;11.20;99.90;;;;;;5040935;28;20090;-68
2022/05/30 06:26:09;;;;;;;4.28;0.85;;;11.30;99.90;;;;;;5046842;28;20053;-68
2022/05/30 06:28:39;;;;;;;3.85;0.70;;;11.40;99.90;;;;;;5040150;28;20053;-68
2022/05/30 06:31:14;;;;;;;3.40;0.80;;;11.40;99.90;;;;;;5040030;28;20064;-68
2022/05/30 06:33:40;;;;;;;2.70;0.65;;;11.40;99.90;;;;;;5035498;28;20366;-68
2022/05/30 06:36:08;;;;;;;4.05;0.60;;;11.40;99.90;;;;;;5035103;28;20053;-69
2022/05/30 06:38:35;;;;;;;2.95;0.52;;;11.50;99.90;;;;;;5034894;28;20087;-69
2022/05/30 06:41:19;;;;;;;2.70;0.52;;;11.60;99.90;;;;;;5034074;28;20111;-69
2022/05/30 06:43:45;;;;;;;2.60;0.47;;;11.80;99.90;;;;;;5045921;28;20074;-69
2022/05/30 06:46:13;;;;;;;1.42;0.38;;;12.00;99.90;;;;;;5061551;28;20080;-69
2022/05/30 06:48:39;;;;;;;1.80;0.40;;;12.10;99.90;;;;;;5047043;28;20053;-69
2022/05/30 06:51:08;;;;;;;2.60;0.45;;;12.10;99.90;;;;;;5048625;28;20061;-69
2022/05/30 06:53:34;;;;;;;2.60;0.60;;;12.10;99.90;;;;;;5065702;28;20143;-69
2022/05/30 06:56:00;;;;;;;1.58;0.43;;;12.20;99.90;;;;;;5069871;28;20141;-69
2022/05/30 06:58:27;;;;;;;2.85;0.40;;;12.20;99.90;;;;;;5058041;28;20041;-69
2022/05/30 07:01:00;;;;;;;2.90;0.40;;;12.30;99.90;;;;;;5046593;28;20052;-69
2022/05/30 07:03:26;;;;;;;1.80;0.50;;;12.50;99.90;;;;;;5044436;28;20052;-69
2022/05/30 07:05:52;;;;;;;2.45;0.50;;;12.50;99.90;;;;;;5064447;28;20073;-69
2022/05/30 07:08:17;;;;;;;4.35;0.50;;;12.60;99.90;;;;;;5047733;28;20087;-69
2022/05/30 07:10:45;;;;;;;3.53;0.40;;;12.80;99.90;;;;;;5067078;28;20040;-69
2022/05/30 07:13:11;;;;;;;2.63;0.47;;;12.90;99.90;;;;;;5068173;28;20059;-69
2022/05/30 07:15:37;;;;;;;5.43;0.65;;;13.00;99.90;;;;;;5066451;28;20158;-69
2022/05/30 07:18:10;;;;;;;1.45;0.30;;;13.10;99.90;;;;;;5065926;28;20642;-69
2022/05/30 07:20:37;;;;;;;2.78;0.30;;;13.20;99.90;;;;;;5043799;28;20095;-69
2022/05/30 07:23:03;;;;;;;2.42;0.30;;;13.40;99.90;;;;;;5045380;28;20169;-69
2022/05/30 07:25:29;;;;;;;0.90;0.20;;;13.50;99.90;;;;;;5046198;28;20037;-70
2022/05/30 07:27:55;;;;;;;0.93;0.28;;;13.60;99.90;;;;;;5046682;28;20056;-69
2022/05/30 07:30:20;;;;;;;2.25;0.43;;;13.70;99.90;;;;;;5070025;28;20116;-69
2022/05/30 07:32:46;;;;;;;3.53;0.30;;;13.90;99.90;;;;;;5046830;28;20412;-69
2022/05/30 07:35:12;;;;;;;1.60;0.30;;;14.10;99.90;;;;;;5066245;28;20134;-69
2022/05/30 07:37:37;;;;;;;2.35;0.20;;;14.30;99.90;;;;;;5066252;28;20037;-69
2022/05/30 07:40:06;;;;;;;2.55;0.40;;;14.40;99.90;;;;;;5045098;28;20132;-69
2022/05/30 07:42:32;;;;;;;2.22;0.28;;;14.30;99.90;;;;;;5048075;28;20045;-69
2022/05/30 07:44:58;;;;;;;2.05;0.28;;;14.30;99.90;;;;;;5062567;28;20048;-69
2022/05/30 07:47:23;;;;;;;2.13;0.30;;;14.40;99.90;;;;;;5059891;28;20040;-69
2022/05/30 07:49:49;;;;;;;1.15;0.20;;;14.60;99.90;;;;;;5058357;28;20056;-71
2022/05/30 07:52:15;;;;;;;1.77;0.20;;;14.60;99.90;;;;;;5045605;28;20067;-71
2022/05/30 07:54:41;;;;;;;1.73;0.28;;;14.70;99.90;;;;;;5041650;28;20102;-71
2022/05/30 07:57:07;;;;;;;2.17;0.30;;;14.80;99.90;;;;;;5046212;28;20045;-71
2022/05/30 07:59:35;;;;;;;1.13;0.20;;;14.70;99.90;;;;;;5050645;28;20138;-71
2022/05/30 08:02:01;;;;;;;3.30;0.32;;;14.70;99.90;;;;;;5044363;28;20098;-71
2022/05/30 08:04:26;;;;;;;2.13;0.25;;;14.70;99.90;;;;;;5049153;28;20040;-72
2022/05/30 08:06:52;;;;;;;0.90;0.20;;;14.80;99.10;;;;;;5042031;28;20053;-71
2022/05/30 08:09:19;;;;;;;1.15;0.40;;;14.60;98.20;;;;;;5045293;28;20071;-71
2022/05/30 08:11:44;;;;;;;2.33;0.20;;;14.60;99.90;;;;;;5044061;28;20048;-72
2022/05/30 08:14:11;;;;;;;1.73;0.30;;;14.80;99.70;;;;;;5051939;28;20025;-71
2022/05/30 08:16:37;;;;;;;4.25;0.40;;;15.10;98.10;;;;;;5041282;28;20053;-71
2022/05/30 08:19:07;;;;;;;1.25;0.20;;;15.20;97.10;;;;;;5051886;28;20147;-71
2022/05/30 08:21:34;;;;;;;2.85;0.47;;;15.20;96.10;;;;;;5044834;28;20072;-71
2022/05/30 08:24:00;;;;;;;1.55;0.13;;;15.10;96.20;;;;;;5045856;28;20106;-71
2022/05/30 08:26:26;;;;;;;0.47;0.10;;;14.90;95.70;;;;;;5031361;28;20044;-71
2022/05/30 08:28:51;;;;;;;2.45;0.30;;;14.60;94.60;;;;;;5049426;28;20048;-71
2022/05/30 08:31:17;;;;;;;2.80;0.20;;;14.10;95.30;;;;;;5062703;28;20433;-72
2022/05/30 08:33:43;;;;;;;3.70;0.17;;;13.50;98.60;;;;;;5024344;28;20388;-71
2022/05/30 08:36:12;;;;;;;0.65;0.13;;;13.10;99.90;;;;;;5038542;28;20452;-71
2022/05/30 08:38:39;;;;;;;2.17;0.20;;;12.70;99.90;;;;;;5060176;28;20089;-71
2022/05/30 08:43:58;;;;;;;1.98;0.38;;;12.00;99.90;;;;;;5044455;28;20060;-71
2022/05/30 08:46:32;;;;;;;3.17;0.30;;;11.70;99.90;;;;;;5044288;28;20052;-72
2022/05/30 08:49:10;;;;;;;1.27;0.20;;;11.50;99.90;;;;;;5056530;28;20040;-72
2022/05/30 08:51:52;;;;;;;0.90;0.30;;;11.40;99.90;;;;;;5046855;28;20048;-72
2022/05/30 08:54:58;;;;;;;0.52;0.20;;;11.40;99.90;;;;;;5066000;28;20112;-73
2022/05/30 08:57:29;;;;;;;;;;;11.30;99.90;;;;;;5011940;28;20057;-73
2022/05/30 09:00:06;;;;;;;0.40;0.10;;;11.30;99.90;;;;;;5067821;28;19925;-72
2022/05/30 09:02:51;;;;;;;2.80;0.45;;;11.30;99.90;;;;;;5043684;28;20047;-72
2022/05/30 09:05:52;;;;;;;1.92;0.20;;;11.40;99.90;;;;;;5030895;28;20048;-72
2022/05/30 09:08:26;;;;;;;0.88;0.20;;;11.40;99.90;;;;;;5044759;28;20040;-72
2022/05/30 09:11:00;;;;;;;1.75;0.30;;;11.50;99.90;;;;;;5061867;28;20102;-74
2022/05/30 09:13:46;;;;;;;2.10;0.20;;;11.60;99.90;;;;;;5046455;28;20036;-73
2022/05/30 09:16:37;;;;;;;1.33;0.20;;;11.80;99.90;;;;;;5059134;28;20040;-74
2022/05/30 09:19:08;;;;;;;0.95;0.30;;;11.90;99.90;;;;;;5049781;28;20037;-74
2022/05/30 09:21:36;;;;;;;1.25;0.40;;;12.10;99.90;;;;;;5029821;28;20151;-74
2022/05/30 09:24:02;;;;;;;2.58;0.47;;;12.30;99.90;;;;;;5035334;28;20519;-74
2022/05/30 09:26:33;;;;;;;1.33;0.28;;;12.50;99.90;;;;;;5040151;28;20057;-74
2022/05/30 09:29:23;;;;;;;1.35;0.30;;;12.50;99.90;;;;;;5045959;28;20036;-74
2022/05/30 09:32:08;;;;;;;1.05;0.20;;;12.70;99.90;;;;;;5043022;28;20049;-74
2022/05/30 09:34:46;;;;;;;1.23;0.20;;;13.00;99.90;;;;;;5045889;28;20036;-74
2022/05/30 09:37:27;;;;;;;0.47;0.10;;;13.20;99.90;;;;;;5044421;28;20439;-74
2022/05/30 09:39:53;;;;;;;0.88;0.20;;;13.60;99.90;;;;;;5043982;28;20037;-76
2022/05/30 09:42:26;;;;;;;1.08;0.10;;;13.90;99.90;;;;;;5048925;28;20032;-76
2022/05/30 09:44:56;;;;;;;0.63;0.10;;;14.50;99.90;;;;;;5042888;28;20036;-76
2022/05/30 09:47:22;;;;;;;1.00;0.10;;;15.20;99.90;;;;;;5044242;28;20778;-76
2022/05/30 09:49:50;;;;;;;1.00;0.00;;;16.00;99.90;;;;;;5025362;28;20046;-76
2022/05/30 09:52:26;;;;;;;0.45;0.10;;;16.50;99.90;;;;;;5042824;28;20033;-77
2022/05/30 09:54:54;;;;;;;0.65;0.10;;;16.40;94.90;;;;;;5045086;28;20463;-77
2022/05/30 09:57:41;;;;;;;1.13;0.20;;;16.20;99.10;;;;;;5042805;28;20128;-77
2022/05/30 10:00:16;;;;;;;0.85;0.20;;;16.30;99.90;;;;;;5042135;28;20075;-76
2022/05/30 10:02:45;;;;;;;1.58;0.10;;;16.50;99.10;;;;;;5043443;28;20053;-76
2022/05/30 10:05:20;;;;;;;2.03;0.13;;;16.40;97.00;;;;;;5037415;28;20049;-76
2022/05/30 10:07:55;;;;;;;1.13;0.32;;;16.50;95.20;;;;;;5036570;28;20068;-75
2022/05/30 10:10:28;;;;;;;1.77;0.20;;;16.40;94.50;;;;;;5053749;28;20068;-76
2022/05/30 10:13:00;;;;;;;0.60;0.00;;;16.40;95.20;;;;;;5029343;28;20064;-75
2022/05/30 10:15:32;;;;;;;1.25;0.17;;;16.50;94.70;;;;;;5046375;28;20052;-77
2022/05/30 10:18:26;;;;;;;1.75;0.10;;;17.00;92.90;;;;;;5041244;28;20049;-77
2022/05/30 10:21:29;;;;;;;0.70;0.10;;;17.20;93.60;;;;;;5041578;28;20119;-76
2022/05/30 10:30:04;;;;;;;2.72;0.30;;;17.30;91.30;;;;;;5041634;28;20741;-76
2022/05/30 10:32:55;;;;;;;1.85;0.10;;;16.90;89.30;;;;;;5044111;28;20076;-76
2022/05/30 10:35:50;;;;;;;0.43;0.10;;;16.40;87.80;;;;;;5045923;28;20037;-75
2022/05/30 10:38:15;;;;;;;;;;;15.90;87.80;;;;;;5041554;28;20204;-75
2022/05/30 10:40:57;;;;;;;0.55;0.00;;;15.30;86.60;;;;;;5033676;28;19916;-75
2022/05/30 10:43:29;;;;;;;0.50;0.10;;;14.90;90.30;;;;;;5048278;28;20522;-75
2022/05/30 10:46:02;;;;;;;1.33;0.10;;;14.60;90.60;;;;;;5033776;28;20056;-75
2022/05/30 10:48:45;;;;;;;1.00;0.10;;;14.60;92.50;;;;;;5045681;28;20056;-75
2022/05/30 10:51:22;;;;;;;0.70;0.22;;;14.50;93.40;;;;;;5034325;28;20057;-74
2022/05/30 10:54:03;;;;;;;0.82;0.10;;;14.40;93.40;;;;;;5044842;28;20047;-74
2022/05/30 10:56:34;;;;;;;2.17;0.10;;;14.50;94.10;;;;;;5047350;28;20152;-75
2022/05/30 10:59:26;;;;;;;0.65;0.10;;;14.60;94.20;;;;;;5047101;28;20051;-75
2022/05/30 11:01:55;;;;;;;1.45;0.10;;;14.90;95.10;;;;;;5040498;28;20045;-74
2022/05/30 11:04:35;;;;;;;0.60;0.10;;;15.30;96.10;;;;;;5035221;28;20056;-74
2022/05/30 11:07:12;;;;;;;0.85;0.10;;;16.00;94.10;;;;;;5047572;28;20050;-75
2022/05/30 11:09:49;;;;;;;1.70;0.10;;;16.50;93.50;;;;;;5047931;28;20126;-75
2022/05/30 11:12:22;;;;;;;1.75;0.15;;;17.00;93.20;;;;;;5050145;28;20103;-75
2022/05/30 11:14:53;;;;;;;1.60;0.20;;;17.10;87.00;;;;;;5059935;28;20733;-75
2022/05/30 11:17:33;;;;;;;0.90;0.10;;;17.30;88.90;;;;;;5048831;28;20068;-75
2022/05/30 11:20:18;;;;;;;2.10;0.70;;;17.40;89.30;;;;;;5045736;28;20465;-75
2022/05/30 11:22:52;;;;;;;1.92;0.40;;;17.30;88.20;;;;;;5046277;28;20048;-74
2022/05/30 11:25:38;;;;;;;1.38;0.20;;;17.20;90.40;;;;;;5043068;28;20084;-74
2022/05/30 11:28:09;;;;;;;1.85;0.20;;;16.90;90.50;;;;;;5027519;28;20044;-74
2022/05/30 11:31:24;;;;;;;3.95;0.75;;;16.60;91.50;;;;;;5029741;28;20131;-74
2022/05/30 11:34:08;;;;;;;1.73;0.20;;;16.30;90.70;;;;;;5046581;28;20044;-74
2022/05/30 11:36:53;;;;;;;2.67;0.20;;;15.70;90.10;;;;;;5060124;28;20044;-74
2022/05/30 11:39:39;;;;;;;2.55;0.20;;;15.30;90.70;;;;;;5043104;28;20068;-73
2022/05/30 11:42:33;;;;;;;2.55;0.30;;;14.80;90.90;;;;;;5027227;28;20106;-73
2022/05/30 11:45:15;;;;;;;2.80;0.50;;;14.30;91.10;;;;;;5040471;28;20063;-73
2022/05/30 11:47:46;;;;;;;1.80;0.20;;;13.90;92.40;;;;;;5049191;28;20438;-73
2022/05/30 11:50:35;;;;;;;2.45;0.30;;;13.40;93.30;;;;;;5046560;28;20106;-73
2022/05/30 11:53:35;;;;;;;2.72;0.40;;;13.10;95.40;;;;;;5030256;28;20493;-73
2022/05/30 11:56:07;;;;;;;5.82;0.38;;;13.00;97.60;;;;;;5034775;28;20131;-72
2022/05/30 11:58:52;;;;;;;1.45;0.30;;;12.80;99.90;;;;;;5043952;28;20083;-72
2022/05/30 12:01:20;;;;;;;2.15;0.30;;;12.70;99.90;;;;;;5042811;28;20060;-72
2022/05/30 12:04:07;;;;;;;3.38;0.40;;;12.40;99.90;;;;;;5030492;28;20048;-71
2022/05/30 12:06:54;;;;;;;2.38;0.38;;;12.30;99.90;;;;;;5045022;28;20044;-72
2022/05/30 12:09:45;;;;;;;2.28;0.63;;;12.10;99.90;;;;;;5046193;28;20045;-72
2022/05/30 12:12:43;;;;;;;2.10;0.40;;;12.10;99.90;;;;;;5030458;28;20049;-72
2022/05/30 12:15:30;;;;;;;2.55;0.30;;;12.00;99.90;;;;;;5050179;28;20028;-72
2022/05/30 12:24:14;;;;;;;3.05;0.52;;;12.50;99.90;;;;;;5047153;28;20048;-72
2022/05/30 12:26:57;;;;;;;1.65;0.28;;;13.10;99.90;;;;;;5043417;28;20048;-72
2022/05/30 12:29:37;;;;;;;1.23;0.40;;;13.80;99.90;;;;;;5044251;28;20048;-72
2022/05/30 12:32:12;;;;;;;1.02;0.20;;;14.60;99.90;;;;;;5041310;28;20080;-72
2022/05/30 12:37:45;;;;;;;2.47;0.50;;;15.40;99.90;;;;;;5044688;28;20128;-72
2022/05/30 12:40:26;;;;;;;1.52;0.30;;;15.70;99.90;;;;;;5042186;28;20386;-72
2022/05/30 12:43:10;;;;;;;1.63;0.20;;;15.90;99.90;;;;;;5028404;28;20385;-72
2022/05/30 12:45:47;;;;;;;3.05;1.00;;;15.90;97.60;;;;;;5044931;28;20460;-72
2022/05/30 12:48:18;;;;;;;3.30;0.30;;;15.70;96.10;;;;;;5034510;28;20053;-72
2022/05/30 12:50:50;;;;;;;1.45;0.30;;;15.70;96.80;;;;;;5044851;28;20060;-72
2022/05/30 12:53:18;;;;;;;2.00;0.40;;;15.80;97.10;;;;;;5050693;28;20102;-72
2022/05/30 12:55:47;;;;;;;4.15;0.40;;;15.90;96.60;;;;;;5045111;28;20090;-72
2022/05/30 12:58:20;;;;;;;2.50;0.30;;;15.70;96.30;;;;;;5040065;28;20045;-71
2022/05/30 13:00:50;;;;;;;1.83;0.40;;;15.80;97.70;;;;;;5043663;28;20084;-72
2022/05/30 13:03:23;;;;;;;1.35;0.20;;;16.20;97.30;;;;;;5036169;28;20052;-72
2022/05/30 13:06:16;;;;;;;2.03;0.30;;;16.50;97.50;;;;;;5044678;28;20061;-72
2022/05/30 13:08:50;;;;;;;1.50;0.10;;;16.50;92.80;;;;;;5042273;28;20083;-72
2022/05/30 13:11:53;;;;;;;2.95;0.20;;;16.30;91.10;;;;;;5046493;28;20145;-72
2022/05/30 13:14:28;;;;;;;3.05;0.20;;;16.20;91.40;;;;;;5046128;28;20044;-72
2022/05/30 13:17:04;;;;;;;2.40;0.20;;;16.10;91.90;;;;;;5051133;28;20377;-72
2022/05/30 13:19:30;;;;;;;1.48;0.20;;;16.20;92.40;;;;;;5032838;28;20451;-72
2022/05/30 13:21:56;;;;;;;2.65;0.10;;;16.30;92.70;;;;;;5062164;28;20036;-72
2022/05/30 13:24:38;;;;;;;1.05;0.20;;;16.60;91.90;;;;;;5040786;28;20057;-73
2022/05/30 13:27:05;;;;;;;1.27;0.10;;;16.70;91.30;;;;;;5041492;28;20144;-73
2022/05/30 13:29:34;;;;;;;1.75;0.10;;;16.70;88.60;;;;;;5034069;28;20092;-73
2022/05/30 13:32:00;;;;;;;0.70;0.10;;;16.60;88.70;;;;;;5045700;28;20381;-73
2022/05/30 13:34:29;;;;;;;2.80;0.20;;;16.60;90.10;;;;;;5049784;28;20060;-73
2022/05/30 13:36:56;;;;;;;2.08;0.20;;;16.50;86.70;;;;;;5065365;28;20087;-73